createdAt,value
2018-06-29T00:03:24.110Z,78.32
2018-06-29T00:08:18.589Z,79.06
2018-06-29T00:13:13.083Z,77.88
2018-06-29T00:18:07.513Z,78.35
2018-06-29T00:23:02.003Z,78.59
2018-06-29T00:27:56.505Z,79.34
2018-06-29T00:32:50.905Z,78.90
2018-06-29T00:37:45.384Z,78.92
2018-06-29T00:42:39.853Z,79.31
2018-06-29T00:47:34.504Z,79.55
2018-06-29T00:52:28.965Z,79.27
2018-06-29T00:57:23.459Z,79.67
2018-06-29T01:02:17.939Z,80.09
2018-06-29T01:07:12.397Z,80.34
2018-06-29T01:12:06.898Z,79.70
2018-06-29T01:17:01.445Z,80.49
2018-06-29T01:21:56.054Z,79.67
2018-06-29T01:26:51.173Z,80.07
2018-06-29T01:31:45.669Z,80.64
2018-06-29T01:36:40.140Z,79.32
2018-06-29T01:41:34.581Z,80.59
2018-06-29T01:46:29.080Z,79.93
2018-06-29T01:51:25.205Z,80.80
2018-06-29T01:56:19.723Z,80.70
2018-06-29T02:01:14.202Z,80.63
2018-06-29T02:06:08.705Z,80.60
2018-06-29T02:11:03.156Z,80.24
2018-06-29T02:15:57.467Z,81.49
2018-06-29T02:20:51.872Z,81.74
2018-06-29T02:25:46.319Z,81.44
2018-06-29T02:30:40.884Z,81.86
2018-06-29T02:35:35.297Z,81.29
2018-06-29T02:40:30.918Z,81.78
2018-06-29T02:45:25.398Z,81.84
2018-06-29T02:50:19.929Z,80.84
2018-06-29T02:55:14.538Z,80.62
2018-06-29T03:00:09.276Z,80.44
2018-06-29T03:05:03.853Z,80.55
2018-06-29T03:09:58.334Z,79.74
2018-06-29T03:14:52.837Z,79.66
2018-06-29T03:19:47.328Z,80.20
2018-06-29T03:24:41.779Z,80.24
2018-06-29T03:29:36.290Z,80.04
2018-06-29T03:34:30.761Z,80.52
2018-06-29T03:39:25.256Z,80.26
2018-06-29T03:44:19.698Z,79.75
2018-06-29T03:49:15.234Z,80.20
2018-06-29T03:54:09.823Z,79.30
2018-06-29T03:59:04.386Z,80.30
2018-06-29T04:03:58.920Z,79.23
2018-06-29T04:08:53.424Z,79.76
2018-06-29T04:13:47.895Z,79.65
2018-06-29T04:18:42.427Z,79.28
2018-06-29T04:23:36.989Z,78.93
2018-06-29T04:28:31.535Z,79.33
2018-06-29T04:33:26.046Z,79.01
2018-06-29T04:38:20.553Z,78.41
2018-06-29T04:43:15.050Z,79.15
2018-06-29T04:48:09.476Z,78.32
2018-06-29T04:53:03.997Z,77.84
2018-06-29T04:57:58.580Z,77.82
2018-06-29T05:02:53.141Z,77.49
2018-06-29T05:07:47.634Z,77.15
2018-06-29T05:12:42.111Z,76.78
2018-06-29T05:17:36.624Z,76.46
2018-06-29T05:22:31.134Z,76.18
2018-06-29T05:27:25.680Z,76.95
2018-06-29T05:32:20.233Z,76.61
2018-06-29T05:37:14.754Z,75.95
2018-06-29T05:42:09.316Z,76.93
2018-06-29T05:47:03.864Z,76.61
2018-06-29T05:51:58.304Z,75.85
2018-06-29T05:56:52.824Z,76.12
2018-06-29T06:01:47.433Z,75.87
2018-06-29T06:06:42.029Z,74.91
2018-06-29T06:11:36.593Z,74.21
2018-06-29T06:16:31.081Z,74.16
2018-06-29T06:21:25.725Z,73.32
2018-06-29T06:26:20.855Z,73.84
2018-06-29T06:31:15.450Z,73.20
2018-06-29T06:36:10.060Z,73.86
2018-06-29T06:41:04.656Z,74.00
2018-06-29T06:46:06.146Z,73.90
2018-06-29T06:51:04.745Z,74.12
2018-06-29T06:55:59.480Z,73.01
2018-06-29T07:00:54.623Z,73.49
2018-06-29T07:05:49.296Z,73.75
2018-06-29T07:10:44.145Z,72.68
2018-06-29T07:15:38.844Z,72.94
2018-06-29T07:20:51.416Z,72.36
2018-06-29T07:25:45.990Z,72.69
2018-06-29T07:30:45.233Z,72.46
2018-06-29T07:35:39.785Z,70.81
2018-06-29T07:40:34.554Z,70.69
2018-06-29T07:45:38.415Z,70.03
2018-06-29T07:50:33.190Z,68.51
2018-06-29T07:55:27.915Z,68.24
2018-06-29T08:00:22.461Z,68.35
2018-06-29T08:05:18.353Z,66.72
2018-06-29T08:10:13.164Z,65.06
2018-06-29T08:15:09.197Z,65.03
2018-06-29T08:20:03.807Z,63.51
2018-06-29T08:25:10.721Z,63.76
2018-06-29T08:30:07.779Z,64.21
2018-06-29T08:35:02.360Z,64.39
2018-06-29T08:40:02.435Z,62.75
2018-06-29T08:44:57.126Z,62.90
2018-06-29T08:49:52.325Z,62.17
2018-06-29T08:54:48.023Z,63.43
2018-06-29T08:59:43.328Z,63.42
2018-06-29T09:04:37.906Z,61.71
2018-06-29T09:09:32.566Z,60.20
2018-06-29T09:14:27.132Z,59.33
2018-06-29T09:19:21.646Z,59.55
2018-06-29T09:24:16.147Z,58.82
2018-06-29T09:29:10.705Z,60.13
2018-06-29T09:34:05.433Z,59.65
2018-06-29T09:38:59.989Z,62.38
2018-06-29T09:43:54.510Z,63.43
2018-06-29T09:48:49.009Z,63.30
2018-06-29T09:53:43.537Z,61.79
2018-06-29T09:58:38.188Z,62.20
2018-06-29T10:03:33.180Z,62.50
2018-06-29T10:08:29.764Z,62.46
2018-06-29T10:13:24.941Z,62.92
2018-06-29T10:18:19.687Z,62.65
2018-06-29T10:23:14.227Z,62.87
2018-06-29T10:28:08.938Z,62.47
2018-06-29T10:33:03.477Z,61.05
2018-06-29T10:37:58.833Z,61.34
2018-06-29T10:43:01.043Z,62.25
2018-06-29T10:47:55.516Z,60.00
2018-06-29T10:52:50.128Z,58.55
2018-06-29T10:57:44.623Z,58.78
2018-06-29T11:02:39.709Z,58.77
2018-06-29T11:07:34.323Z,60.79
2018-06-29T11:12:30.940Z,60.13
2018-06-29T11:17:25.536Z,59.67
2018-06-29T11:22:20.048Z,59.79
2018-06-29T11:27:14.577Z,58.16
2018-06-29T11:32:09.426Z,57.65
2018-06-29T11:37:07.301Z,56.56
2018-06-29T11:42:01.811Z,56.47
2018-06-29T11:47:03.498Z,56.20
2018-06-29T11:51:58.164Z,56.94
2018-06-29T11:56:52.700Z,56.99
2018-06-29T12:01:47.312Z,56.41
2018-06-29T12:06:41.821Z,55.16
2018-06-29T12:11:36.447Z,55.32
2018-06-29T12:16:30.948Z,54.55
2018-06-29T12:21:25.531Z,54.28
2018-06-29T12:26:20.034Z,53.63
2018-06-29T12:31:14.577Z,53.84
2018-06-29T12:36:15.337Z,53.52
2018-06-29T12:41:09.923Z,53.11
2018-06-29T12:46:04.506Z,52.59
2018-06-29T12:50:58.932Z,52.29
2018-06-29T12:55:53.489Z,52.77
2018-06-29T13:00:48.019Z,52.30
2018-06-29T13:05:43.676Z,51.74
2018-06-29T13:10:38.253Z,49.72
2018-06-29T13:15:33.614Z,49.98
2018-06-29T13:20:28.521Z,50.07
2018-06-29T13:25:23.077Z,48.85
2018-06-29T13:30:17.625Z,49.38
2018-06-29T13:35:12.091Z,49.03
2018-06-29T13:40:06.923Z,48.78
2018-06-29T13:45:01.441Z,48.81
2018-06-29T13:49:56.009Z,47.70
2018-06-29T13:54:50.527Z,48.42
2018-06-29T13:59:46.124Z,48.00
2018-06-29T14:04:40.630Z,48.25
2018-06-29T14:09:35.116Z,48.96
2018-06-29T14:14:29.686Z,48.70
2018-06-29T14:19:24.241Z,48.08
2018-06-29T14:24:18.696Z,47.70
2018-06-29T14:29:13.397Z,48.20
2018-06-29T14:34:07.956Z,48.00
2018-06-29T14:39:02.532Z,48.31
2018-06-29T14:43:57.137Z,48.35
2018-06-29T14:48:51.746Z,48.93
2018-06-29T14:53:46.233Z,47.95
2018-06-29T14:58:40.767Z,48.24
2018-06-29T15:03:35.277Z,47.30
2018-06-29T15:08:29.784Z,47.97
2018-06-29T15:13:24.510Z,48.37
2018-06-29T15:18:18.977Z,48.65
2018-06-29T15:23:13.613Z,48.75
2018-06-29T15:28:08.500Z,49.61
2018-06-29T15:33:04.862Z,49.46
2018-06-29T15:37:59.884Z,48.08
2018-06-29T15:42:54.921Z,49.06
2018-06-29T15:47:49.448Z,48.51
2018-06-29T15:52:44.068Z,49.62
2018-06-29T15:57:39.130Z,50.04
2018-06-29T16:02:33.990Z,50.28
2018-06-29T16:07:28.871Z,48.27
2018-06-29T16:12:23.548Z,49.77
2018-06-29T16:17:18.380Z,50.35
2018-06-29T16:22:14.426Z,49.68
2018-06-29T16:27:09.060Z,49.18
2018-06-29T16:32:03.634Z,50.03
2018-06-29T16:36:58.719Z,50.17
2018-06-29T16:41:53.214Z,50.58
2018-06-29T16:46:47.831Z,50.35
2018-06-29T16:51:42.894Z,50.96
2018-06-29T16:56:37.581Z,51.58
2018-06-29T17:01:32.229Z,52.28
2018-06-29T17:06:27.002Z,51.83
2018-06-29T17:11:21.857Z,51.84
2018-06-29T17:16:16.453Z,51.37
2018-06-29T17:21:11.064Z,51.17
2018-06-29T17:26:05.652Z,50.98
2018-06-29T17:31:00.474Z,51.99
2018-06-29T17:35:58.348Z,51.89
2018-06-29T17:40:53.377Z,52.21
2018-06-29T17:45:47.996Z,52.49
2018-06-29T17:50:42.719Z,51.94
2018-06-29T17:55:37.988Z,50.88
2018-06-29T18:00:32.612Z,50.09
2018-06-29T18:05:27.303Z,51.35
2018-06-29T18:10:22.073Z,51.34
2018-06-29T18:15:17.441Z,52.13
2018-06-29T18:20:12.507Z,52.64
2018-06-29T18:25:08.107Z,51.97
2018-06-29T18:30:03.101Z,52.56
2018-06-29T18:34:59.048Z,52.83
2018-06-29T18:39:54.280Z,53.25
2018-06-29T18:44:49.645Z,53.66
2018-06-29T18:49:44.784Z,54.07
2018-06-29T18:54:40.180Z,52.72
2018-06-29T18:59:34.762Z,52.63
2018-06-29T19:04:29.579Z,52.52
2018-06-29T19:09:24.477Z,53.04
2018-06-29T19:14:19.388Z,54.85
2018-06-29T19:19:14.469Z,55.83
2018-06-29T19:24:09.258Z,57.41
2018-06-29T19:29:04.256Z,57.16
2018-06-29T19:34:00.007Z,57.29
2018-06-29T19:38:55.171Z,57.64
2018-06-29T19:43:50.239Z,57.94
2018-06-29T19:48:45.733Z,58.42
2018-06-29T19:53:41.442Z,58.80
2018-06-29T19:58:36.286Z,58.90
2018-06-29T20:03:32.517Z,59.84
2018-06-29T20:08:27.332Z,59.76
2018-06-29T20:13:22.090Z,59.92
2018-06-29T20:18:17.189Z,60.26
2018-06-29T20:23:11.870Z,60.83
2018-06-29T20:28:07.508Z,60.53
2018-06-29T20:33:02.424Z,61.04
2018-06-29T20:37:57.409Z,61.39
2018-06-29T20:42:52.025Z,61.53
2018-06-29T20:47:46.709Z,62.30
2018-06-29T20:52:41.462Z,62.64
2018-06-29T20:57:36.199Z,63.04
2018-06-29T21:02:31.445Z,63.14
2018-06-29T21:07:25.999Z,63.19
2018-06-29T21:12:22.707Z,63.62
2018-06-29T21:17:20.804Z,63.32
2018-06-29T21:22:16.165Z,64.03
2018-06-29T21:27:11.441Z,64.34
2018-06-29T21:32:06.842Z,64.02
2018-06-29T21:37:02.314Z,64.02
2018-06-29T21:41:57.263Z,64.26
2018-06-29T21:46:52.525Z,65.33
2018-06-29T21:51:47.857Z,64.79
2018-06-29T21:56:43.425Z,65.05
2018-06-29T22:01:38.709Z,65.11
2018-06-29T22:06:33.552Z,65.54
2018-06-29T22:11:29.133Z,66.56
2018-06-29T22:16:24.493Z,66.78
2018-06-29T22:21:19.857Z,66.72
2018-06-29T22:26:14.636Z,67.29
2018-06-29T22:31:09.993Z,67.51
2018-06-29T22:36:05.252Z,66.80
2018-06-29T22:41:00.427Z,67.33
2018-06-29T22:45:56.212Z,67.34
2018-06-29T22:50:51.685Z,68.17
2018-06-29T22:55:46.901Z,68.88
2018-06-29T23:00:42.256Z,70.02
2018-06-29T23:05:37.599Z,69.72
2018-06-29T23:10:32.743Z,70.41
2018-06-29T23:15:27.972Z,71.13
2018-06-29T23:20:23.133Z,71.21
2018-06-29T23:25:18.484Z,71.63
2018-06-29T23:30:13.691Z,72.48
2018-06-29T23:35:08.947Z,72.38
2018-06-29T23:40:04.275Z,73.35
2018-06-29T23:44:59.714Z,73.44
2018-06-29T23:49:54.790Z,73.57
2018-06-29T23:54:50.231Z,73.49
2018-06-29T23:59:45.404Z,74.20
